Time;durP1;ratioP1;P1;durP2;ratioP2;P2;SDS_P1;SDS_P2;PMS_P1;PMS_P2;Temp;Humidity;BMP_temperature;BMP_pressure;BME280_temperature;BME280_humidity;BME280_pressure;Samples;Min_cycle;Max_cycle;Signal;HPM_P1;HPM_P2
2021/08/28 00:01:36;;;;;;;8.07;4.57;;;;;;;16.29;63.88;100358.69;5112142;28;20032;-62
2021/08/28 00:04:02;;;;;;;6.43;4.75;;;;;;;16.22;63.81;100360.25;5111248;27;20027;-61
2021/08/28 00:06:28;;;;;;;6.95;5.07;;;;;;;16.29;63.64;100355.13;5111735;28;20464;-61
2021/08/28 00:08:54;;;;;;;9.77;5.15;;;;;;;16.27;63.55;100354.41;5093830;28;20059;-62
2021/08/28 00:11:21;;;;;;;10.05;5.00;;;;;;;16.31;63.54;100361.22;5111911;28;20114;-62
2021/08/28 00:13:46;;;;;;;7.00;4.80;;;;;;;16.39;63.00;100368.59;5113011;27;20487;-63
2021/08/28 00:16:13;;;;;;;7.03;4.60;;;;;;;16.33;63.08;100360.09;5111653;28;20023;-60
2021/08/28 00:18:38;;;;;;;7.57;4.10;;;;;;;16.26;63.19;100364.34;5112194;28;20023;-63
2021/08/28 00:21:06;;;;;;;8.18;4.90;;;;;;;16.18;63.44;100362.41;5110658;28;20500;-61
2021/08/28 00:23:31;;;;;;;5.30;3.83;;;;;;;16.15;63.87;100359.97;5111426;28;20046;-61
2021/08/28 00:26:11;;;;;;;6.88;4.05;;;;;;;16.20;63.39;100360.41;5112584;28;20089;-61
2021/08/28 00:28:37;;;;;;;7.57;4.20;;;;;;;15.93;63.70;100320.69;5112009;28;20020;-61
2021/08/28 00:31:04;;;;;;;7.55;4.15;;;;;;;16.01;63.41;100341.56;5111601;28;20031;-62
2021/08/28 00:33:29;;;;;;;10.32;4.10;;;;;;;16.03;63.26;100347.66;5111633;28;20024;-60
2021/08/28 00:35:55;;;;;;;4.97;3.35;;;;;;;16.15;63.26;100362.69;5112894;28;20384;-60
2021/08/28 00:38:20;;;;;;;6.38;3.78;;;;;;;16.10;63.59;100366.84;5110642;28;20034;-62
2021/08/28 00:40:45;;;;;;;9.43;4.75;;;;;;;16.09;63.15;100357.88;5111591;28;20031;-61
2021/08/28 00:43:11;;;;;;;7.32;4.40;;;;;;;16.00;63.74;100364.16;5111567;28;20114;-61
2021/08/28 00:45:38;;;;;;;7.60;4.70;;;;;;;16.01;63.75;100374.81;5112369;28;20078;-60
2021/08/28 00:48:10;;;;;;;9.70;4.68;;;;;;;15.89;63.94;100363.31;5111859;28;20031;-61
2021/08/28 00:50:38;;;;;;;7.00;4.70;;;;;;;16.00;63.64;100369.56;5111520;28;20027;-60
2021/08/28 00:53:08;;;;;;;8.85;5.20;;;;;;;15.97;63.52;100376.09;5111127;28;20024;-62
2021/08/28 00:55:37;;;;;;;9.70;4.65;;;;;;;16.02;63.10;100356.78;5112361;28;20050;-62
2021/08/28 00:58:06;;;;;;;10.88;4.90;;;;;;;15.99;63.69;100382.22;5111260;28;20024;-61
2021/08/28 01:00:53;;;;;;;6.55;4.63;;;;;;;16.07;63.56;100374.25;5111315;28;20032;-61
2021/08/28 01:03:22;;;;;;;11.38;4.93;;;;;;;16.00;63.55;100386.63;5115311;28;20066;-61
2021/08/28 01:05:55;;;;;;;6.50;4.40;;;;;;;16.00;63.24;100388.47;5116381;27;20046;-61
2021/08/28 01:08:28;;;;;;;8.52;5.03;;;;;;;15.96;63.07;100373.56;5115469;28;20083;-61
2021/08/28 01:11:07;;;;;;;9.77;4.28;;;;;;;16.00;62.97;100381.22;5113638;28;20092;-61
2021/08/28 01:13:34;;;;;;;8.73;4.82;;;;;;;15.99;62.94;100379.50;5097047;28;20067;-60
2021/08/28 01:16:01;;;;;;;8.80;4.32;;;;;;;15.90;62.54;100375.00;5116475;27;20034;-62
2021/08/28 01:18:28;;;;;;;7.95;4.68;;;;;;;15.96;62.76;100378.97;5115467;28;20031;-62
2021/08/28 01:21:07;;;;;;;9.25;4.55;;;;;;;16.08;62.50;100383.19;5114175;28;20452;-61
2021/08/28 01:23:35;;;;;;;8.10;4.85;;;;;;;16.02;62.40;100387.31;5114956;28;20044;-62
2021/08/28 01:26:07;;;;;;;9.50;4.13;;;;;;;16.11;61.91;100380.19;5115410;28;20151;-59
2021/08/28 01:28:41;;;;;;;5.78;4.10;;;;;;;16.06;61.37;100386.06;5131137;27;20031;-61
2021/08/28 01:31:09;;;;;;;10.13;4.30;;;;;;;15.90;61.64;100375.81;5135664;27;20035;-61
2021/08/28 01:33:35;;;;;;;8.15;4.50;;;;;;;15.97;61.87;100386.91;5135024;27;20612;-60
2021/08/28 01:36:01;;;;;;;8.00;4.45;;;;;;;16.03;61.37;100380.09;5136129;27;20042;-59
2021/08/28 01:38:27;;;;;;;9.73;3.95;;;;;;;16.07;61.18;100382.34;5133572;27;20034;-60
2021/08/28 01:40:53;;;;;;;11.27;5.10;;;;;;;16.01;61.75;100382.09;5135012;27;20392;-60
2021/08/28 01:43:20;;;;;;;10.98;4.40;;;;;;;15.77;61.88;100353.66;5133887;27;20027;-60
2021/08/28 01:45:47;;;;;;;6.78;3.80;;;;;;;15.89;62.13;100393.03;5133909;27;20460;-61
2021/08/28 01:48:14;;;;;;;9.57;4.35;;;;;;;15.91;61.70;100396.47;5133292;27;20083;-61
2021/08/28 01:50:40;;;;;;;6.90;3.50;;;;;;;15.93;61.78;100386.38;5135441;27;20027;-61
2021/08/28 01:53:07;;;;;;;7.72;3.63;;;;;;;15.86;61.98;100393.28;5146594;27;20027;-61
2021/08/28 01:55:33;;;;;;;13.68;4.25;;;;;;;15.85;62.12;100383.50;5144571;27;20043;-63
2021/08/28 01:57:59;;;;;;;6.85;3.70;;;;;;;15.79;61.84;100374.16;5137338;27;20027;-61
2021/08/28 02:00:24;;;;;;;6.07;3.92;;;;;;;15.87;61.74;100380.66;5132998;27;20054;-61
2021/08/28 02:02:50;;;;;;;7.78;3.92;;;;;;;15.71;61.66;100365.06;5135430;27;20035;-60
2021/08/28 02:05:16;;;;;;;8.65;3.50;;;;;;;15.70;61.57;100364.19;5134937;27;20027;-61
2021/08/28 02:08:03;;;;;;;7.65;3.65;;;;;;;15.87;61.76;100392.28;5133782;27;20368;-59
2021/08/28 02:10:46;;;;;;;11.95;3.38;;;;;;;15.84;61.75;100392.59;5119758;27;20028;-61
2021/08/28 02:13:24;;;;;;;9.07;3.45;;;;;;;15.80;62.03;100385.78;5113708;28;20036;-60
2021/08/28 02:15:54;;;;;;;10.13;3.22;;;;;;;15.68;62.18;100385.06;5114175;28;20377;-60
2021/08/28 02:18:38;;;;;;;6.78;3.28;;;;;;;15.67;62.31;100393.31;5113780;28;20226;-61
2021/08/28 02:21:05;;;;;;;6.63;3.20;;;;;;;15.78;61.48;100382.38;5114662;27;20097;-61
2021/08/28 02:23:50;;;;;;;7.70;3.60;;;;;;;15.89;61.36;100386.78;5113403;28;20047;-60
2021/08/28 02:26:19;;;;;;;8.27;3.63;;;;;;;15.74;61.62;100391.75;5113788;28;20038;-61
2021/08/28 02:28:50;;;;;;;6.20;3.30;;;;;;;15.64;61.99;100394.47;5113933;28;20039;-60
2021/08/28 02:31:18;;;;;;;7.80;3.50;;;;;;;15.55;62.53;100396.16;5114594;27;20361;-60
2021/08/28 02:33:46;;;;;;;7.97;3.58;;;;;;;15.39;62.13;100374.28;5113972;28;20063;-60
2021/08/28 02:36:13;;;;;;;6.00;3.03;;;;;;;15.51;62.42;100386.66;5113878;28;20024;-61
2021/08/28 02:38:40;;;;;;;6.20;3.28;;;;;;;15.57;61.95;100388.78;5113584;28;20028;-60
2021/08/28 02:41:07;;;;;;;8.60;3.45;;;;;;;15.56;61.98;100392.47;5113146;27;20033;-62
2021/08/28 02:43:32;;;;;;;5.38;3.08;;;;;;;15.60;61.81;100387.66;5114125;28;20027;-61
2021/08/28 02:45:59;;;;;;;10.07;2.90;;;;;;;15.31;61.57;100354.28;5111904;28;20085;-63
2021/08/28 02:48:28;;;;;;;6.80;2.67;;;;;;;15.58;61.90;100397.75;5113436;28;20072;-61
2021/08/28 02:50:57;;;;;;;6.25;3.13;;;;;;;15.54;61.93;100390.91;5114172;27;20024;-62
2021/08/28 02:53:24;;;;;;;6.28;2.90;;;;;;;15.46;61.72;100372.75;5113382;27;20027;-61
2021/08/28 02:55:51;;;;;;;6.20;3.50;;;;;;;15.52;61.15;100376.69;5113343;28;20031;-61
2021/08/28 02:58:16;;;;;;;7.68;3.10;;;;;;;15.60;61.47;100391.19;5113340;28;20031;-61
2021/08/28 03:00:43;;;;;;;4.97;2.80;;;;;;;15.62;61.32;100394.59;5113125;28;20084;-62
2021/08/28 03:03:12;;;;;;;6.05;2.67;;;;;;;15.70;61.07;100399.28;5114481;27;20031;-62
2021/08/28 03:05:38;;;;;;;5.10;3.00;;;;;;;15.60;60.89;100391.19;5113115;28;20039;-62
2021/08/28 03:08:04;;;;;;;8.32;3.22;;;;;;;15.62;61.67;100404.56;5113224;28;20492;-61
2021/08/28 03:10:31;;;;;;;6.78;2.83;;;;;;;15.66;61.29;100400.56;5112815;28;20366;-62
2021/08/28 03:12:56;;;;;;;7.43;3.08;;;;;;;15.73;60.73;100396.28;5133347;27;20066;-60
2021/08/28 03:15:22;;;;;;;7.13;2.78;;;;;;;15.79;60.84;100408.38;5133198;27;20136;-60
2021/08/28 03:17:48;;;;;;;8.73;2.80;;;;;;;15.78;60.44;100402.09;5133702;27;20034;-60
2021/08/28 03:20:15;;;;;;;6.72;3.17;;;;;;;15.74;60.43;100416.88;5133183;27;20114;-61
2021/08/28 03:22:42;;;;;;;8.38;2.80;;;;;;;15.64;61.22;100403.41;5117177;27;20526;-61
2021/08/28 03:25:09;;;;;;;6.38;2.90;;;;;;;15.74;60.46;100416.06;5112702;28;20043;-63
2021/08/28 03:27:38;;;;;;;5.78;2.92;;;;;;;15.71;61.01;100427.97;5113096;28;20465;-59
2021/08/28 03:30:06;;;;;;;6.15;2.70;;;;;;;15.77;60.38;100413.91;5111275;28;20157;-60
2021/08/28 03:32:34;;;;;;;6.55;2.67;;;;;;;15.75;60.46;100406.97;5131515;27;20050;-60
2021/08/28 03:35:00;;;;;;;8.40;2.85;;;;;;;15.57;60.66;100374.44;5132787;27;20027;-60
2021/08/28 03:37:26;;;;;;;7.97;2.80;;;;;;;15.93;59.98;100417.91;5132909;27;20037;-60
2021/08/28 03:39:53;;;;;;;5.13;2.65;;;;;;;16.00;59.40;100412.78;5133221;27;20027;-60
2021/08/28 03:42:19;;;;;;;4.30;2.33;;;;;;;16.16;58.69;100421.16;5118491;27;20039;-61
2021/08/28 03:44:44;;;;;;;5.45;2.75;;;;;;;15.96;58.83;100362.78;5093905;28;20032;-61
2021/08/28 03:47:14;;;;;;;4.72;2.58;;;;;;;16.25;58.61;100399.66;5110990;28;20031;-61
2021/08/28 03:49:39;;;;;;;5.90;2.30;;;;;;;16.26;58.28;100396.78;5112154;28;20039;-61
2021/08/28 03:52:05;;;;;;;6.68;2.47;;;;;;;16.29;58.04;100407.31;5120778;27;20026;-60
2021/08/28 03:54:31;;;;;;;6.35;2.55;;;;;;;16.38;57.84;100402.84;5131145;27;20122;-62
2021/08/28 03:56:56;;;;;;;4.38;1.83;;;;;;;16.48;57.79;100411.78;5132594;27;20019;-61
2021/08/28 03:59:22;;;;;;;3.70;2.08;;;;;;;16.63;56.68;100412.16;5132939;27;20068;-60
2021/08/28 04:01:47;;;;;;;3.53;2.40;;;;;;;16.68;56.42;100411.72;5130239;27;20076;-61
2021/08/28 04:04:13;;;;;;;7.90;2.33;;;;;;;16.99;55.84;100407.88;5111682;28;20383;-61
2021/08/28 04:06:39;;;;;;;5.18;1.92;;;;;;;17.73;53.37;100402.34;5112005;28;20078;-60
2021/08/28 04:09:04;;;;;;;5.43;2.63;;;;;;;18.34;51.40;100408.72;5112315;28;20040;-61
2021/08/28 04:11:30;;;;;;;5.50;2.38;;;;;;;18.92;49.65;100421.72;5112105;28;20047;-62
2021/08/28 04:13:55;;;;;;;5.45;2.25;;;;;;;19.23;48.59;100394.00;5127860;27;20061;-62
2021/08/28 04:16:21;;;;;;;6.00;2.38;;;;;;;19.24;48.58;100398.41;5132206;27;20049;-61
2021/08/28 04:18:46;;;;;;;5.38;2.20;;;;;;;19.27;48.65;100414.38;5132638;27;20110;-61
2021/08/28 04:21:12;;;;;;;3.35;2.63;;;;;;;19.21;48.42;100421.34;5132370;27;20430;-61
2021/08/28 04:23:37;;;;;;;6.07;2.30;;;;;;;19.06;48.86;100420.25;5130507;27;20118;-61
2021/08/28 04:26:02;;;;;;;5.60;2.50;;;;;;;18.86;49.47;100427.81;5132227;27;20035;-62
2021/08/28 04:28:28;;;;;;;6.93;2.70;;;;;;;18.61;49.80;100420.41;5132381;27;20027;-60
2021/08/28 04:30:53;;;;;;;4.72;2.60;;;;;;;18.48;50.24;100401.84;5132268;27;20476;-62
2021/08/28 04:33:19;;;;;;;6.28;2.65;;;;;;;18.56;50.02;100401.06;5128655;27;20030;-59
2021/08/28 04:35:44;;;;;;;5.22;2.50;;;;;;;18.69;49.62;100408.75;5110708;28;20476;-61
2021/08/28 04:38:10;;;;;;;5.20;2.33;;;;;;;18.77;49.25;100406.03;5111731;28;20544;-62
2021/08/28 04:40:37;;;;;;;4.32;3.00;;;;;;;19.16;48.34;100407.38;5111459;28;20032;-61
2021/08/28 04:43:02;;;;;;;5.50;2.80;;;;;;;;;;5111015;28;20110;-61
2021/08/28 04:45:28;;;;;;;6.45;2.58;;;;;;;22.43;40.52;100408.47;5128650;28;20114;-61
2021/08/28 04:47:53;;;;;;;7.13;2.78;;;;;;;23.60;37.88;100393.06;5131856;27;20091;-60
2021/08/28 04:50:19;;;;;;;3.60;2.60;;;;;;;24.97;35.30;100396.56;5130508;28;20387;-61
2021/08/28 04:52:44;;;;;;;3.88;2.97;;;;;;;25.67;33.49;100389.97;5132340;27;20449;-61
2021/08/28 04:55:10;;;;;;;4.75;2.70;;;;;;;26.29;32.57;100390.59;5129759;27;20031;-60
2021/08/28 04:57:35;;;;;;;6.47;2.80;;;;;;;26.98;31.14;100390.16;5132300;27;20034;-60
2021/08/28 05:00:01;;;;;;;7.00;2.53;;;;;;;27.78;29.53;100393.50;5131570;27;20422;-61
2021/08/28 05:02:26;;;;;;;7.93;2.60;;;;;;;27.58;29.38;100361.47;5131769;27;20027;-59
2021/08/28 05:04:52;;;;;;;5.10;2.20;;;;;;;28.84;27.80;100375.25;5127149;27;20020;-61
2021/08/28 05:07:17;;;;;;;4.82;2.55;;;;;;;29.91;26.12;100376.44;5111732;28;20419;-61
2021/08/28 05:09:42;;;;;;;4.53;2.70;;;;;;;30.88;24.65;100367.78;5111352;28;20110;-60
2021/08/28 05:12:08;;;;;;;4.45;2.20;;;;;;;31.10;24.16;100374.53;5111553;28;20027;-61
2021/08/28 05:14:38;;;;;;;7.25;2.00;;;;;;;31.83;23.45;100377.53;5127453;28;20023;-59
2021/08/28 05:17:05;;;;;;;5.22;2.38;;;;;;;32.13;22.67;100389.31;5127741;28;20067;-61
2021/08/28 05:19:31;;;;;;;4.30;2.38;;;;;;;32.14;22.63;100371.59;5131623;27;20076;-63
2021/08/28 05:21:57;;;;;;;3.83;2.28;;;;;;;33.20;21.28;100377.97;5131650;27;20480;-63
2021/08/28 05:24:22;;;;;;;3.67;2.40;;;;;;;33.80;20.35;100379.88;5131080;27;20146;-63
2021/08/28 05:26:48;;;;;;;2.38;2.10;;;;;;;33.48;20.29;100366.84;5119207;28;20036;-63
2021/08/28 05:29:13;;;;;;;4.13;2.30;;;;;;;33.43;20.36;100350.16;5110286;28;20039;-64
2021/08/28 05:31:39;;;;;;;3.97;2.13;;;;;;;34.22;19.52;100367.94;5109772;28;20024;-64
2021/08/28 05:34:04;;;;;;;2.78;1.90;;;;;;;35.15;18.60;100369.44;5111116;28;20054;-64
2021/08/28 05:36:30;;;;;;;4.43;2.08;;;;;;;35.62;18.04;100370.34;5112367;28;20027;-61
2021/08/28 05:38:56;;;;;;;3.92;2.08;;;;;;;35.34;18.04;100373.38;5111470;28;20028;-61
2021/08/28 05:41:21;;;;;;;3.60;2.30;;;;;;;34.71;18.60;100382.66;5110891;28;20020;-69
2021/08/28 05:43:47;;;;;;;6.50;2.22;;;;;;;34.16;18.80;100379.31;5110858;28;20119;-63
2021/08/28 05:46:12;;;;;;;6.53;2.20;;;;;;;33.74;19.50;100389.25;5111308;28;20047;-62
2021/08/28 05:48:38;;;;;;;7.63;2.45;;;;;;;33.43;19.87;100380.69;5132083;27;20116;-62
2021/08/28 05:51:03;;;;;;;7.35;2.55;;;;;;;32.89;19.93;100382.34;5135482;27;20080;-62
2021/08/28 05:53:29;;;;;;;3.83;2.17;;;;;;;31.96;21.16;100389.34;5134413;27;20031;-60
2021/08/28 05:55:54;;;;;;;4.47;2.47;;;;;;;31.64;21.61;100390.75;5133758;27;20031;-62
2021/08/28 05:58:20;;;;;;;7.13;2.20;;;;;;;31.26;22.28;100378.47;5134490;27;20065;-62
2021/08/28 06:00:45;;;;;;;3.88;2.42;;;;;;;30.71;23.01;100373.25;5133851;27;20115;-63
2021/08/28 06:03:11;;;;;;;5.70;2.13;;;;;;;30.27;23.89;100373.69;5133960;27;20058;-63
2021/08/28 06:05:36;;;;;;;6.18;2.53;;;;;;;32.00;21.47;100360.06;5135409;27;20027;-63
2021/08/28 06:08:02;;;;;;;7.03;2.58;;;;;;;34.05;19.26;100357.00;5134111;27;20497;-62
2021/08/28 06:10:28;;;;;;;6.82;2.53;;;;;;;35.16;18.10;100365.53;5134673;27;20038;-63
2021/08/28 06:12:54;;;;;;;7.05;2.65;;;;;;;36.17;17.19;100364.16;5133516;27;20031;-61
2021/08/28 06:15:19;;;;;;;4.88;2.60;;;;;;;36.75;16.42;100346.94;5134810;27;20423;-64
2021/08/28 06:17:45;;;;;;;5.72;2.53;;;;;;;37.68;15.49;100364.19;5131901;27;20023;-65
2021/08/28 06:20:12;;;;;;;4.60;2.03;;;;;;;37.56;15.08;100373.75;5130955;27;20027;-65
2021/08/28 06:22:38;;;;;;;3.90;2.20;;;;;;;37.16;15.75;100359.00;5132694;27;20237;-64
2021/08/28 06:25:05;;;;;;;4.22;1.80;;;;;;;35.67;17.16;100352.78;5132210;27;20085;-66
2021/08/28 06:27:30;;;;;;;3.30;2.45;;;;;;;34.22;18.53;100348.50;5133020;27;20066;-64
2021/08/28 06:29:56;;;;;;;4.35;2.20;;;;;;;32.49;20.14;100334.44;5131099;27;20035;-65
2021/08/28 06:32:21;;;;;;;3.65;1.90;;;;;;;30.78;22.78;100353.78;5133753;27;20025;-64
2021/08/28 06:34:47;;;;;;;3.53;2.17;;;;;;;30.81;23.04;100338.59;5134622;27;20557;-64
2021/08/28 06:37:12;;;;;;;3.47;2.15;;;;;;;33.16;20.25;100321.31;5134016;27;20058;-64
2021/08/28 06:39:38;;;;;;;5.68;2.00;;;;;;;36.07;17.12;100309.28;5132181;27;20023;-64
2021/08/28 06:42:03;;;;;;;3.88;2.45;;;;;;;38.60;14.80;100328.78;5133287;27;20037;-65
2021/08/28 06:44:29;;;;;;;5.85;2.10;;;;;;;40.30;13.08;100329.06;5133137;27;20380;-64
2021/08/28 06:46:54;;;;;;;7.43;2.00;;;;;;;41.68;12.38;100347.75;5141202;27;20033;-64
2021/08/28 06:49:20;;;;;;;3.28;2.58;;;;;;;40.96;12.20;100339.94;5141954;27;20035;-64
2021/08/28 06:51:45;;;;;;;6.15;2.30;;;;;;;39.36;13.27;100349.50;5115603;28;20436;-64
2021/08/28 06:54:11;;;;;;;5.68;2.40;;;;;;;38.68;14.09;100335.69;5112768;27;20485;-64
2021/08/28 06:56:36;;;;;;;4.50;2.50;;;;;;;39.71;13.39;100335.19;5112917;28;20542;-64
2021/08/28 06:59:02;;;;;;;5.13;2.90;;;;;;;40.61;12.49;100334.00;5112611;28;20484;-64
2021/08/28 07:01:27;;;;;;;7.20;2.50;;;;;;;41.01;12.61;100345.47;5128026;27;20031;-64
2021/08/28 07:03:53;;;;;;;9.10;2.67;;;;;;;41.43;11.74;100331.25;5133437;27;20041;-64
2021/08/28 07:06:18;;;;;;;5.10;2.03;;;;;;;41.42;11.91;100318.34;5133945;27;20110;-62
2021/08/28 07:08:44;;;;;;;3.83;2.38;;;;;;;41.30;11.91;100327.34;5133608;27;20072;-64
2021/08/28 07:11:10;;;;;;;3.83;2.03;;;;;;;41.63;11.72;100343.13;5131342;27;20621;-64
2021/08/28 07:13:35;;;;;;;3.75;2.72;;;;;;;41.47;11.54;100325.78;5133527;27;20046;-63
2021/08/28 07:16:01;;;;;;;4.72;2.45;;;;;;;41.00;11.91;100324.16;5133067;27;20027;-64
2021/08/28 07:18:26;;;;;;;3.15;2.58;;;;;;;40.90;12.04;100325.22;5133179;27;20030;-63
2021/08/28 07:20:52;;;;;;;4.20;2.20;;;;;;;41.58;11.55;100315.94;5112492;27;20051;-64
2021/08/28 07:23:18;;;;;;;4.18;2.58;;;;;;;41.43;11.58;100321.97;5133379;27;20115;-64
2021/08/28 07:25:43;;;;;;;6.03;2.30;;;;;;;41.06;12.16;100336.06;5133078;27;20456;-62
2021/08/28 07:28:11;;;;;;;6.15;2.70;;;;;;;41.60;11.71;100344.59;5133223;27;20031;-63
2021/08/28 07:30:36;;;;;;;4.88;2.35;;;;;;;42.28;11.38;100306.19;5133179;27;20034;-63
2021/08/28 07:33:02;;;;;;;6.25;2.25;;;;;;;43.84;10.30;100290.69;5116281;27;20392;-63
2021/08/28 07:35:28;;;;;;;7.28;2.38;;;;;;;44.95;9.50;100324.53;5111975;28;20075;-63
2021/08/28 07:37:55;;;;;;;4.55;2.70;;;;;;;45.87;8.76;100320.94;5128982;27;20027;-63
2021/08/28 07:40:23;;;;;;;3.50;2.28;;;;;;;45.78;8.83;100321.03;5131866;27;20088;-65
2021/08/28 07:42:56;;;;;;;2.58;2.33;;;;;;;45.58;8.83;100325.59;5132428;27;20442;-64
2021/08/28 07:45:22;;;;;;;4.35;2.58;;;;;;;43.57;9.87;100324.59;5133138;27;20042;-64
2021/08/28 07:47:48;;;;;;;6.32;2.53;;;;;;;42.45;10.67;100311.88;5131451;27;20059;-64
2021/08/28 07:50:14;;;;;;;7.93;2.42;;;;;;;41.45;11.63;100308.44;5133265;27;20458;-65
2021/08/28 07:52:42;;;;;;;2.72;2.33;;;;;;;40.67;12.00;100307.47;5132770;27;20159;-63
2021/08/28 07:55:09;;;;;;;2.92;2.53;;;;;;;41.00;11.46;100324.16;5131340;27;20047;-64
2021/08/28 07:57:34;;;;;;;6.90;2.78;;;;;;;40.65;11.92;100311.75;5132460;27;20084;-64
2021/08/28 08:00:00;;;;;;;4.80;2.60;;;;;;;39.15;12.97;100293.84;5132783;27;20023;-63
2021/08/28 08:02:25;;;;;;;4.43;2.22;;;;;;;38.11;13.67;100288.00;5131277;27;20055;-64
2021/08/28 08:04:51;;;;;;;4.80;2.33;;;;;;;36.94;14.75;100284.88;5132527;27;20027;-64
2021/08/28 08:07:16;;;;;;;4.82;2.35;;;;;;;35.08;16.58;100288.19;5132203;27;20027;-63
2021/08/28 08:09:42;;;;;;;4.03;2.30;;;;;;;33.61;18.44;100313.66;5132878;27;20024;-63
2021/08/28 08:12:07;;;;;;;4.35;2.15;;;;;;;31.82;21.48;100314.09;5131863;27;20491;-63
2021/08/28 08:14:33;;;;;;;4.38;1.88;;;;;;;30.39;23.85;100317.56;5132568;27;20019;-64
2021/08/28 08:16:58;;;;;;;3.53;2.10;;;;;;;29.34;24.06;100322.56;5132141;27;20027;-64
2021/08/28 08:19:24;;;;;;;3.35;2.47;;;;;;;28.19;25.75;100316.91;5133105;27;20023;-64
2021/08/28 08:21:49;;;;;;;4.97;2.60;;;;;;;26.85;27.85;100294.09;5132660;27;20515;-64
2021/08/28 08:24:16;;;;;;;5.63;2.45;;;;;;;26.07;29.30;100319.47;5132379;27;20088;-64
2021/08/28 08:26:41;;;;;;;4.20;2.60;;;;;;;25.58;30.19;100318.03;5130886;27;20019;-64
2021/08/28 08:29:07;;;;;;;7.13;2.55;;;;;;;25.01;31.35;100313.75;5130962;27;20027;-63
2021/08/28 08:31:32;;;;;;;5.90;2.75;;;;;;;24.45;32.60;100312.06;5132186;27;20027;-63
2021/08/28 08:33:58;;;;;;;3.33;2.35;;;;;;;24.28;32.46;100319.75;5130857;27;20043;-63
2021/08/28 08:36:23;;;;;;;4.53;2.58;;;;;;;23.59;34.05;100314.84;5113802;28;20034;-63
2021/08/28 08:38:49;;;;;;;4.35;2.30;;;;;;;23.36;35.85;100315.94;5132065;27;20028;-63
2021/08/28 08:41:15;;;;;;;4.25;2.35;;;;;;;23.29;34.97;100314.19;5132096;27;20056;-63
2021/08/28 08:43:41;;;;;;;5.22;2.70;;;;;;;23.35;34.62;100316.97;5131966;27;20031;-63
2021/08/28 08:46:08;;;;;;;6.65;2.60;;;;;;;23.08;35.35;100313.97;5131897;27;20030;-63
2021/08/28 08:48:35;;;;;;;4.22;2.20;;;;;;;22.85;36.16;100316.00;5131986;27;20028;-64
2021/08/28 08:51:02;;;;;;;4.20;2.42;;;;;;;22.93;35.69;100326.84;5131401;27;20031;-64
2021/08/28 08:53:30;;;;;;;3.92;2.33;;;;;;;22.85;35.91;100330.53;5131785;27;20329;-64
2021/08/28 08:55:56;;;;;;;6.40;2.50;;;;;;;22.62;36.31;100287.84;5132170;27;20062;-64
2021/08/28 08:58:22;;;;;;;4.10;2.58;;;;;;;22.76;36.42;100318.88;5132384;27;20031;-64
2021/08/28 09:00:47;;;;;;;7.40;2.80;;;;;;;22.55;36.81;100308.78;5131944;27;20084;-64
2021/08/28 09:03:13;;;;;;;8.90;3.10;;;;;;;22.51;36.94;100300.09;5131877;27;20023;-63
2021/08/28 09:05:39;;;;;;;6.53;2.90;;;;;;;22.53;37.17;100305.34;5130487;28;20392;-64
2021/08/28 09:08:04;;;;;;;6.30;2.35;;;;;;;22.36;36.93;100294.66;5131926;27;20119;-63
2021/08/28 09:10:30;;;;;;;5.68;2.50;;;;;;;22.41;36.90;100307.69;5132326;27;20027;-64
2021/08/28 09:13:11;;;;;;;10.10;3.10;;;;;;;22.59;36.27;100317.41;5131677;27;20031;-64
2021/08/28 09:15:45;;;;;;;4.88;2.50;;;;;;;22.41;36.83;100296.78;5132004;27;20329;-65
2021/08/28 09:18:11;;;;;;;6.20;3.15;;;;;;;22.23;37.02;100273.50;5132062;27;20058;-64
2021/08/28 09:20:36;;;;;;;7.63;2.92;;;;;;;22.31;37.74;100298.97;5132014;27;20067;-62
2021/08/28 09:23:08;;;;;;;4.15;2.60;;;;;;;22.46;37.02;100288.94;5133868;27;20125;-64
2021/08/28 09:25:37;;;;;;;7.43;3.10;;;;;;;22.45;36.91;100281.75;5134812;27;20031;-63
2021/08/28 09:28:03;;;;;;;6.75;3.05;;;;;;;22.47;36.86;100274.25;5134672;27;20081;-64
2021/08/28 09:30:39;;;;;;;7.40;2.70;;;;;;;22.74;36.43;100290.06;5135299;27;20027;-64
2021/08/28 09:33:12;;;;;;;7.57;2.80;;;;;;;22.91;36.53;100290.69;5135257;27;20057;-64
2021/08/28 09:35:40;;;;;;;4.15;2.90;;;;;;;22.90;37.11;100278.06;5135533;27;20405;-63
2021/08/28 09:38:06;;;;;;;6.93;3.05;;;;;;;23.02;36.75;100276.50;5133737;27;20038;-62
2021/08/28 09:40:38;;;;;;;3.75;2.60;;;;;;;22.95;37.05;100278.34;5135076;27;20063;-63
2021/08/28 09:43:07;;;;;;;5.45;3.00;;;;;;;23.03;37.20;100261.81;5135221;27;20376;-65
2021/08/28 09:45:35;;;;;;;6.38;3.17;;;;;;;22.72;37.18;100252.06;5116965;27;20482;-64
2021/08/28 09:48:01;;;;;;;7.50;2.92;;;;;;;22.41;38.58;100247.69;5135157;27;20249;-63
2021/08/28 09:50:30;;;;;;;3.35;2.50;;;;;;;22.62;37.74;100270.63;5116741;27;20031;-63
2021/08/28 09:53:00;;;;;;;7.63;2.95;;;;;;;22.45;38.00;100269.97;5135561;27;20101;-64
2021/08/28 09:55:29;;;;;;;4.57;2.30;;;;;;;22.48;37.82;100269.63;5136062;27;20061;-64
2021/08/28 09:57:54;;;;;;;9.75;3.30;;;;;;;22.27;38.63;100271.22;5135066;27;20028;-64
2021/08/28 10:00:20;;;;;;;7.15;3.13;;;;;;;22.25;39.07;100275.19;5134915;27;20029;-64
2021/08/28 10:03:05;;;;;;;4.95;2.60;;;;;;;22.53;37.68;100272.63;5134808;27;20031;-64
2021/08/28 10:05:34;;;;;;;5.13;2.72;;;;;;;22.40;38.37;100258.78;5135189;27;20041;-64
2021/08/28 10:08:02;;;;;;;18.15;4.32;;;;;;;22.33;38.38;100266.88;5133882;27;20435;-63
2021/08/28 10:10:30;;;;;;;4.55;2.65;;;;;;;22.19;38.41;100261.28;5133800;27;20361;-62
2021/08/28 10:12:57;;;;;;;4.50;2.60;;;;;;;22.22;38.70;100250.00;5133557;27;20484;-63
2021/08/28 10:15:24;;;;;;;5.00;2.70;;;;;;;22.25;39.10;100258.81;5135032;27;20069;-64
2021/08/28 10:17:50;;;;;;;4.95;2.80;;;;;;;22.19;38.88;100247.66;5134782;27;20039;-63
2021/08/28 10:20:19;;;;;;;5.40;2.80;;;;;;;22.47;38.47;100259.75;5134467;27;20325;-64
2021/08/28 10:22:49;;;;;;;4.47;2.60;;;;;;;22.58;38.64;100263.84;5115941;27;20047;-63
2021/08/28 10:25:18;;;;;;;4.53;2.35;;;;;;;22.82;37.07;100254.47;5134271;27;20099;-64
2021/08/28 10:27:45;;;;;;;4.18;2.58;;;;;;;22.72;37.24;100259.41;5134492;27;20031;-64
2021/08/28 10:30:12;;;;;;;3.35;2.80;;;;;;;22.41;37.77;100260.47;5132867;27;20088;-64
2021/08/28 10:32:39;;;;;;;4.10;3.17;;;;;;;22.27;38.20;100249.41;5133231;27;20114;-64
2021/08/28 10:35:06;;;;;;;3.60;2.83;;;;;;;22.04;38.55;100258.53;5132031;27;20435;-64
2021/08/28 10:37:31;;;;;;;3.92;2.78;;;;;;;22.02;38.85;100244.25;5134673;27;20027;-64
2021/08/28 10:39:58;;;;;;;6.18;2.65;;;;;;;22.21;38.30;100251.03;5132843;27;20460;-64
2021/08/28 10:42:26;;;;;;;5.50;2.95;;;;;;;22.45;38.19;100256.34;5134362;27;20039;-64
2021/08/28 10:44:52;;;;;;;5.70;2.88;;;;;;;22.50;37.61;100279.31;5133023;27;20065;-66
2021/08/28 10:47:26;;;;;;;4.88;2.53;;;;;;;22.47;37.15;100279.69;5132853;27;20035;-64
2021/08/28 10:49:57;;;;;;;5.78;2.70;;;;;;;22.41;36.84;100268.66;5133054;27;20468;-63
2021/08/28 10:52:25;;;;;;;4.03;3.00;;;;;;;22.28;37.03;100266.63;5134035;27;20350;-64
2021/08/28 10:55:01;;;;;;;3.25;2.72;;;;;;;22.43;37.16;100267.47;5134016;27;20031;-64
2021/08/28 10:57:28;;;;;;;5.68;2.55;;;;;;;22.20;37.80;100248.47;5134407;27;20055;-64
2021/08/28 11:00:12;;;;;;;5.97;2.95;;;;;;;22.35;37.62;100240.28;5133815;27;20476;-64
2021/08/28 11:02:59;;;;;;;5.40;3.05;;;;;;;22.55;37.60;100256.06;5132339;27;20035;-65
2021/08/28 11:05:31;;;;;;;4.28;2.67;;;;;;;22.73;36.81;100264.66;5133883;27;20422;-67
2021/08/28 11:08:03;;;;;;;8.07;2.95;;;;;;;22.55;36.79;100247.88;5133918;27;20454;-65
2021/08/28 11:10:29;;;;;;;5.22;2.78;;;;;;;22.48;36.82;100240.47;5132220;27;20023;-65
2021/08/28 11:13:00;;;;;;;7.22;3.10;;;;;;;22.58;37.24;100255.66;5132673;27;20031;-65
2021/08/28 11:15:28;;;;;;;8.02;2.97;;;;;;;22.45;37.54;100238.09;5133185;27;20024;-66
2021/08/28 11:18:04;;;;;;;6.18;2.95;;;;;;;22.42;37.58;100249.38;5133585;27;20055;-64
2021/08/28 11:20:39;;;;;;;;;;;;;;;22.65;36.69;100242.94;5116062;27;20035;-65
2021/08/28 11:23:06;;;;;;;5.38;3.10;;;;;;;22.26;37.56;100211.44;5133499;27;20060;-65
2021/08/28 11:25:34;;;;;;;6.03;2.95;;;;;;;22.22;38.22;100239.09;5132354;27;20046;-65
2021/08/28 11:28:03;;;;;;;4.50;2.90;;;;;;;22.15;37.90;100229.94;5132227;27;20051;-65